createdAt,value
2018-06-05T00:00:40.481Z,21.25
2018-06-05T00:01:46.456Z,19.95
2018-06-05T00:02:52.386Z,20.75
2018-06-05T00:03:58.387Z,20.85
2018-06-05T00:05:04.370Z,20.80
2018-06-05T00:06:10.654Z,21.37
2018-06-05T00:07:16.702Z,20.40
2018-06-05T00:08:22.825Z,20.82
2018-06-05T00:09:28.762Z,21.12
2018-06-05T00:10:34.691Z,20.20
2018-06-05T00:11:40.621Z,21.00
2018-06-05T00:12:46.996Z,22.50
2018-06-05T00:13:53.007Z,21.00
2018-06-05T00:14:58.918Z,19.57
2018-06-05T00:16:04.871Z,22.75
2018-06-05T00:17:10.993Z,22.58
2018-06-05T00:18:16.983Z,21.33
2018-06-05T00:19:23.134Z,21.17
2018-06-05T00:20:29.158Z,21.02
2018-06-05T00:21:35.102Z,21.33
2018-06-05T00:22:41.072Z,22.58
2018-06-05T00:23:46.998Z,20.68
2018-06-05T00:24:52.918Z,21.10
2018-06-05T00:25:58.885Z,22.10
2018-06-05T00:27:04.840Z,23.45
2018-06-05T00:28:10.784Z,21.65
2018-06-05T00:29:16.797Z,22.67
2018-06-05T00:30:22.744Z,22.93
2018-06-05T00:31:28.772Z,21.30
2018-06-05T00:32:34.710Z,22.22
2018-06-05T00:33:40.684Z,21.52
2018-06-05T00:34:46.628Z,22.67
2018-06-05T00:35:52.577Z,21.65
2018-06-05T00:36:58.540Z,22.70
2018-06-05T00:38:04.911Z,23.70
2018-06-05T00:39:10.841Z,22.75
2018-06-05T00:40:16.874Z,23.80
2018-06-05T00:41:22.900Z,22.85
2018-06-05T00:42:28.835Z,23.25
2018-06-05T00:43:34.807Z,22.87
2018-06-05T00:44:40.727Z,23.70
2018-06-05T00:45:51.879Z,23.10
2018-06-05T00:46:57.828Z,23.92
2018-06-05T00:48:03.783Z,25.48
2018-06-05T00:49:09.716Z,23.02
2018-06-05T00:50:15.629Z,23.30
2018-06-05T00:51:38.512Z,23.65
2018-06-05T00:52:44.569Z,24.35
2018-06-05T00:53:50.553Z,22.48
2018-06-05T00:54:56.491Z,24.40
2018-06-05T00:56:02.089Z,24.80
2018-06-05T00:57:08.200Z,24.57
2018-06-05T00:58:14.147Z,22.75
2018-06-05T00:59:20.086Z,23.83
2018-06-05T01:00:26.028Z,23.12
2018-06-05T01:01:31.994Z,23.65
2018-06-05T01:02:37.973Z,24.98
2018-06-05T01:03:43.893Z,22.58
2018-06-05T01:04:49.844Z,24.45
2018-06-05T01:05:55.771Z,22.82
2018-06-05T01:07:01.705Z,24.10
2018-06-05T01:08:07.696Z,24.30
2018-06-05T01:09:14.217Z,23.65
2018-06-05T01:10:20.547Z,24.50
2018-06-05T01:11:26.478Z,23.90
2018-06-05T01:12:32.447Z,24.20
2018-06-05T01:13:38.447Z,23.77
2018-06-05T01:14:44.389Z,25.08
2018-06-05T01:15:50.316Z,24.43
2018-06-05T01:16:56.268Z,24.02
2018-06-05T01:18:02.192Z,24.07
2018-06-05T01:19:08.166Z,23.25
2018-06-05T01:20:14.131Z,23.75
2018-06-05T01:21:20.102Z,24.35
2018-06-05T01:22:26.059Z,24.00
2018-06-05T01:23:31.984Z,23.83
2018-06-05T01:24:37.964Z,23.65
2018-06-05T01:25:43.910Z,22.52
2018-06-05T01:26:49.925Z,24.07
2018-06-05T01:27:56.340Z,22.52
2018-06-05T01:29:02.317Z,22.90
2018-06-05T01:30:08.627Z,23.30
2018-06-05T01:31:14.564Z,25.30
2018-06-05T01:32:20.550Z,24.20
2018-06-05T01:33:26.837Z,21.82
2018-06-05T01:34:32.781Z,23.35
2018-06-05T01:35:38.426Z,22.80
2018-06-05T01:36:44.283Z,24.12
2018-06-05T01:37:50.215Z,23.80
2018-06-05T01:38:56.151Z,23.32
2018-06-05T01:40:02.232Z,22.22
2018-06-05T01:41:08.193Z,23.05
2018-06-05T01:42:14.105Z,23.00
2018-06-05T01:43:19.710Z,23.55
2018-06-05T01:44:25.562Z,24.45
2018-06-05T01:45:31.507Z,24.50
2018-06-05T01:46:37.470Z,23.62
2018-06-05T01:47:43.389Z,23.55
2018-06-05T01:48:49.260Z,24.70
2018-06-05T01:49:55.185Z,24.70
2018-06-05T01:51:01.115Z,25.32
2018-06-05T01:52:07.075Z,25.35
2018-06-05T01:53:13.004Z,25.08
2018-06-05T01:54:18.982Z,24.67
2018-06-05T01:55:24.943Z,24.32
2018-06-05T01:56:30.899Z,26.37
2018-06-05T01:57:36.875Z,24.20
2018-06-05T01:58:42.811Z,25.55
2018-06-05T01:59:48.727Z,24.25
2018-06-05T02:00:54.669Z,24.67
2018-06-05T02:02:00.599Z,26.05
2018-06-05T02:03:06.550Z,26.45
2018-06-05T02:04:12.469Z,25.80
2018-06-05T02:05:18.427Z,24.72
2018-06-05T02:06:24.358Z,26.23
2018-06-05T02:07:30.281Z,26.20
2018-06-05T02:08:36.233Z,26.17
2018-06-05T02:09:42.170Z,27.10
2018-06-05T02:10:48.115Z,26.15
2018-06-05T02:11:54.070Z,26.40
2018-06-05T02:13:00.044Z,27.27
2018-06-05T02:14:06.044Z,26.65
2018-06-05T02:15:12.012Z,26.87
2018-06-05T02:16:18.142Z,27.02
2018-06-05T02:17:24.123Z,27.60
2018-06-05T02:18:30.335Z,26.45
2018-06-05T02:19:36.293Z,26.35
2018-06-05T02:20:42.205Z,27.85
2018-06-05T02:21:47.813Z,27.87
2018-06-05T02:22:53.650Z,28.32
2018-06-05T02:23:59.622Z,28.20
2018-06-05T02:25:05.586Z,27.00
2018-06-05T02:26:11.510Z,27.10
2018-06-05T02:27:17.442Z,26.75
2018-06-05T02:28:23.370Z,29.02
2018-06-05T02:29:29.312Z,27.87
2018-06-05T02:30:35.254Z,28.38
2018-06-05T02:31:41.251Z,26.35
2018-06-05T02:32:47.216Z,27.48
2018-06-05T02:33:53.133Z,29.10
2018-06-05T02:34:59.074Z,27.67
2018-06-05T02:36:05.634Z,27.70
2018-06-05T02:37:11.573Z,28.30
2018-06-05T02:38:17.520Z,26.97
2018-06-05T02:39:23.521Z,28.62
2018-06-05T02:40:29.491Z,25.60
2018-06-05T02:41:38.358Z,26.23
2018-06-05T02:42:44.304Z,26.95
2018-06-05T02:43:49.959Z,26.70
2018-06-05T02:44:55.779Z,28.23
2018-06-05T02:46:01.977Z,25.88
2018-06-05T02:47:07.923Z,26.15
2018-06-05T02:48:13.849Z,28.42
2018-06-05T02:49:19.781Z,26.80
2018-06-05T02:50:25.714Z,27.85
2018-06-05T02:51:31.654Z,28.32
2018-06-05T02:52:37.634Z,27.45
2018-06-05T02:53:43.572Z,28.30
2018-06-05T02:54:49.523Z,27.50
2018-06-05T02:55:55.647Z,28.05
2018-06-05T02:57:01.587Z,27.60
2018-06-05T02:58:07.561Z,28.42
2018-06-05T02:59:13.495Z,26.85
2018-06-05T03:00:19.177Z,26.87
2018-06-05T03:01:25.024Z,24.92
2018-06-05T03:02:30.954Z,29.07
2018-06-05T03:03:36.992Z,27.70
2018-06-05T03:04:42.918Z,27.22
2018-06-05T03:05:48.598Z,27.77
2018-06-05T03:06:54.496Z,27.17
2018-06-05T03:08:00.664Z,26.70
2018-06-05T03:09:08.344Z,27.40
2018-06-05T03:10:14.657Z,25.15
2018-06-05T03:11:20.606Z,24.85
2018-06-05T03:12:26.546Z,26.17
2018-06-05T03:13:32.494Z,28.35
2018-06-05T03:14:39.488Z,25.55
2018-06-05T03:15:45.467Z,28.20
2018-06-05T03:16:51.405Z,27.45
2018-06-05T03:17:57.433Z,27.40
2018-06-05T03:19:03.424Z,27.55
2018-06-05T03:20:09.745Z,26.25
2018-06-05T03:21:15.684Z,26.77
2018-06-05T03:22:21.636Z,27.05
2018-06-05T03:23:27.599Z,26.85
2018-06-05T03:24:33.519Z,26.48
2018-06-05T03:25:39.486Z,26.40
2018-06-05T03:26:45.406Z,27.55
2018-06-05T03:27:51.353Z,25.80
2018-06-05T03:28:57.332Z,26.57
2018-06-05T03:30:03.678Z,27.60
2018-06-05T03:31:09.654Z,26.27
2018-06-05T03:32:15.636Z,27.07
2018-06-05T03:33:21.644Z,29.23
2018-06-05T03:34:27.751Z,27.07
2018-06-05T03:35:33.350Z,26.55
2018-06-05T03:36:39.228Z,30.57
2018-06-05T03:37:45.190Z,27.15
2018-06-05T03:38:51.127Z,28.40
2018-06-05T03:39:57.052Z,28.50
2018-06-05T03:41:03.005Z,26.90
2018-06-05T03:42:09.248Z,27.25
2018-06-05T03:43:15.207Z,26.52
2018-06-05T03:44:21.190Z,29.75
2018-06-05T03:45:27.111Z,28.38
2018-06-05T03:46:33.039Z,26.40
2018-06-05T03:47:38.981Z,28.02
2018-06-05T03:48:44.979Z,29.20
2018-06-05T03:49:50.921Z,27.22
2018-06-05T03:50:56.862Z,26.30
2018-06-05T03:52:03.215Z,28.98
2018-06-05T03:53:09.179Z,27.07
2018-06-05T03:54:15.458Z,28.25
2018-06-05T03:55:21.393Z,27.40
2018-06-05T03:56:27.348Z,27.80
2018-06-05T03:57:33.463Z,26.40
2018-06-05T03:58:39.501Z,28.27
2018-06-05T03:59:45.430Z,27.77
2018-06-05T04:00:51.397Z,29.07
2018-06-05T04:01:57.519Z,27.77
2018-06-05T04:03:03.471Z,28.10
2018-06-05T04:04:09.190Z,29.20
2018-06-05T04:05:15.068Z,30.43
2018-06-05T04:06:21.316Z,30.00
2018-06-05T04:07:27.242Z,28.25
2018-06-05T04:08:33.162Z,28.05
2018-06-05T04:09:39.137Z,28.25
2018-06-05T04:10:45.063Z,28.17
2018-06-05T04:11:50.983Z,28.32
2018-06-05T04:12:56.939Z,26.70
2018-06-05T04:14:02.979Z,29.32
2018-06-05T04:15:08.971Z,27.15
2018-06-05T04:16:14.897Z,27.48
2018-06-05T04:17:20.895Z,28.32
2018-06-05T04:18:26.895Z,27.85
2018-06-05T04:19:32.873Z,27.75
2018-06-05T04:20:38.944Z,28.15
2018-06-05T04:21:44.882Z,27.73
2018-06-05T04:22:50.488Z,27.05
2018-06-05T04:23:56.320Z,29.30
2018-06-05T04:25:02.247Z,28.70
2018-06-05T04:26:08.225Z,28.10
2018-06-05T04:27:14.147Z,29.80
2018-06-05T04:28:20.096Z,28.60
2018-06-05T04:29:26.041Z,27.62
2018-06-05T04:30:34.938Z,26.97
2018-06-05T04:31:41.059Z,28.38
2018-06-05T04:32:47.026Z,29.20
2018-06-05T04:33:52.995Z,28.25
2018-06-05T04:34:58.924Z,27.30
2018-06-05T04:36:04.891Z,26.10
2018-06-05T04:37:12.496Z,26.12
2018-06-05T04:38:18.446Z,27.00
2018-06-05T04:39:24.424Z,25.92
2018-06-05T04:40:30.395Z,28.62
2018-06-05T04:41:36.818Z,29.02
2018-06-05T04:42:42.779Z,27.35
2018-06-05T04:43:48.695Z,28.50
2018-06-05T04:44:54.633Z,26.52
2018-06-05T04:46:00.916Z,27.65
2018-06-05T04:47:06.866Z,28.32
2018-06-05T04:48:12.849Z,27.48
2018-06-05T04:49:18.835Z,25.95
2018-06-05T04:50:24.781Z,26.52
2018-06-05T04:51:31.079Z,28.05
2018-06-05T04:52:37.014Z,27.82
2018-06-05T04:53:42.987Z,29.63
2018-06-05T04:54:48.935Z,28.70
2018-06-05T04:55:54.979Z,27.80
2018-06-05T04:57:01.366Z,27.42
2018-06-05T04:58:07.445Z,27.62
2018-06-05T04:59:13.140Z,28.85
2018-06-05T05:00:18.975Z,28.42
2018-06-05T05:01:24.947Z,28.62
2018-06-05T05:02:31.015Z,27.32
2018-06-05T05:03:36.947Z,29.10
2018-06-05T05:04:44.985Z,28.87
2018-06-05T05:05:51.012Z,29.23
2018-06-05T05:06:56.970Z,28.83
2018-06-05T05:08:04.829Z,28.47
2018-06-05T05:09:10.859Z,28.73
2018-06-05T05:10:17.057Z,28.67
2018-06-05T05:11:23.031Z,28.65
2018-06-05T05:12:29.006Z,28.57
2018-06-05T05:13:35.074Z,27.80
2018-06-05T05:14:40.995Z,27.85
2018-06-05T05:15:48.331Z,29.27
2018-06-05T05:16:56.669Z,27.10
2018-06-05T05:18:03.252Z,26.95
2018-06-05T05:19:09.952Z,27.00
2018-06-05T05:20:16.040Z,28.12
2018-06-05T05:21:21.996Z,28.45
2018-06-05T05:22:28.645Z,28.40
2018-06-05T05:23:34.832Z,27.77
2018-06-05T05:24:40.787Z,28.90
2018-06-05T05:25:47.113Z,26.97
2018-06-05T05:26:53.735Z,26.75
2018-06-05T05:27:59.927Z,30.40
2018-06-05T05:29:05.903Z,27.10
2018-06-05T05:30:12.158Z,28.15
2018-06-05T05:31:18.466Z,29.00
2018-06-05T05:32:24.666Z,29.48
2018-06-05T05:33:30.667Z,28.17
2018-06-05T05:34:36.609Z,27.70
2018-06-05T05:35:42.539Z,26.75
2018-06-05T05:36:48.860Z,30.43
2018-06-05T05:37:54.620Z,30.12
2018-06-05T05:39:00.229Z,26.50
2018-06-05T05:40:06.207Z,28.40
2018-06-05T05:41:12.456Z,28.75
2018-06-05T05:42:18.430Z,29.05
2018-06-05T05:43:25.314Z,29.05
2018-06-05T05:44:31.380Z,28.00
2018-06-05T05:45:37.596Z,27.80
2018-06-05T05:46:43.639Z,27.02
2018-06-05T05:47:49.618Z,28.23
2018-06-05T05:48:55.628Z,26.57
2018-06-05T05:50:01.619Z,25.77
2018-06-05T05:51:07.793Z,26.45
2018-06-05T05:52:13.769Z,25.27
2018-06-05T05:53:19.774Z,25.68
2018-06-05T05:54:25.760Z,25.35
2018-06-05T05:55:32.046Z,24.60
2018-06-05T05:56:38.002Z,25.15
2018-06-05T05:57:44.008Z,25.57
2018-06-05T05:58:50.268Z,25.92
2018-06-05T05:59:56.255Z,24.60
2018-06-05T06:01:02.250Z,24.47
2018-06-05T06:02:08.198Z,24.25
2018-06-05T06:03:14.151Z,25.23
2018-06-05T06:04:20.097Z,23.50
2018-06-05T06:05:26.052Z,25.10
2018-06-05T06:06:31.983Z,25.92
2018-06-05T06:07:37.964Z,24.25
2018-06-05T06:08:44.615Z,23.73
2018-06-05T06:09:52.787Z,23.67
2018-06-05T06:10:58.787Z,25.37
2018-06-05T06:12:04.730Z,26.20
2018-06-05T06:13:10.662Z,25.75
2018-06-05T06:14:16.615Z,25.02
2018-06-05T06:15:22.539Z,26.65
2018-06-05T06:16:28.542Z,24.12
2018-06-05T06:17:34.146Z,23.90
2018-06-05T06:18:40.035Z,25.45
2018-06-05T06:19:46.014Z,25.08
2018-06-05T06:20:52.178Z,26.23
2018-06-05T06:21:58.186Z,25.00
2018-06-05T06:23:04.134Z,25.70
2018-06-05T06:24:10.175Z,25.82
2018-06-05T06:25:16.143Z,25.57
2018-06-05T06:26:22.440Z,26.17
2018-06-05T06:27:28.446Z,25.45
2018-06-05T06:28:34.390Z,26.45
2018-06-05T06:29:40.322Z,27.07
2018-06-05T06:30:46.299Z,22.82
2018-06-05T06:31:52.234Z,24.25
2018-06-05T06:32:58.215Z,23.42
2018-06-05T06:34:04.346Z,23.12
2018-06-05T06:35:10.276Z,24.07
2018-06-05T06:36:16.222Z,25.75
2018-06-05T06:37:22.170Z,22.15
2018-06-05T06:38:28.136Z,27.35
2018-06-05T06:39:34.099Z,26.62
2018-06-05T06:40:40.110Z,26.48
2018-06-05T06:41:46.059Z,24.27
2018-06-05T06:42:52.067Z,25.77
2018-06-05T06:43:58.016Z,25.90
2018-06-05T06:45:03.626Z,25.50
2018-06-05T06:46:09.478Z,26.23
2018-06-05T06:47:15.410Z,25.92
2018-06-05T06:48:21.351Z,26.20
2018-06-05T06:49:27.298Z,25.77
2018-06-05T06:50:33.221Z,24.43
2018-06-05T06:51:39.203Z,26.40
2018-06-05T06:52:45.155Z,25.88
2018-06-05T06:53:51.118Z,25.48
2018-06-05T06:54:57.101Z,25.88
2018-06-05T06:56:03.067Z,24.85
2018-06-05T06:57:09.017Z,25.72
2018-06-05T06:58:14.951Z,24.27
2018-06-05T06:59:20.887Z,23.20
2018-06-05T07:00:26.875Z,23.40
2018-06-05T07:01:32.814Z,22.65
2018-06-05T07:02:38.758Z,22.60
2018-06-05T07:03:44.710Z,22.62
2018-06-05T07:04:50.638Z,22.22
2018-06-05T07:05:57.630Z,23.15
2018-06-05T07:07:03.576Z,22.42
2018-06-05T07:08:09.637Z,20.90
2018-06-05T07:09:15.574Z,20.70
2018-06-05T07:10:21.241Z,22.58
2018-06-05T07:11:27.140Z,19.95
2018-06-05T07:12:33.299Z,21.10
2018-06-05T07:13:39.243Z,20.92
2018-06-05T07:14:45.174Z,22.50
2018-06-05T07:15:51.113Z,21.37
2018-06-05T07:16:57.091Z,20.77
2018-06-05T07:18:03.062Z,21.40
2018-06-05T07:19:08.997Z,20.72
2018-06-05T07:20:15.395Z,21.10
2018-06-05T07:21:21.411Z,20.68
2018-06-05T07:22:27.365Z,22.02
2018-06-05T07:23:33.310Z,20.88
2018-06-05T07:24:39.347Z,20.72
2018-06-05T07:25:45.311Z,20.55
2018-06-05T07:26:51.256Z,19.92
2018-06-05T07:27:57.233Z,20.52
2018-06-05T07:29:03.228Z,20.92
2018-06-05T07:30:09.234Z,20.85
2018-06-05T07:31:15.140Z,20.23
2018-06-05T07:32:21.448Z,21.10
2018-06-05T07:33:27.439Z,21.02
2018-06-05T07:34:33.911Z,20.27
2018-06-05T07:35:39.902Z,23.22
2018-06-05T07:36:45.919Z,21.73
2018-06-05T07:37:52.631Z,19.92
2018-06-05T07:38:58.648Z,21.97
2018-06-05T07:40:04.754Z,21.75
2018-06-05T07:41:10.685Z,21.48
2018-06-05T07:42:16.393Z,22.95
2018-06-05T07:43:22.538Z,21.55
2018-06-05T07:44:28.632Z,21.30
2018-06-05T07:45:34.810Z,22.48
2018-06-05T07:46:40.826Z,21.70
2018-06-05T07:47:47.090Z,21.37
2018-06-05T07:48:53.310Z,21.45
2018-06-05T07:49:59.385Z,21.25
2018-06-05T07:51:05.516Z,21.07
2018-06-05T07:52:12.428Z,19.98
2018-06-05T07:53:18.639Z,21.23
2018-06-05T07:54:24.559Z,20.60
2018-06-05T07:55:30.516Z,20.02
2018-06-05T07:56:36.495Z,20.08
2018-06-05T07:57:42.254Z,21.82
2018-06-05T07:58:48.100Z,21.12
2018-06-05T07:59:54.067Z,21.73
2018-06-05T08:01:00.063Z,20.23
2018-06-05T08:02:05.732Z,20.92
2018-06-05T08:03:11.619Z,19.32
2018-06-05T08:04:17.567Z,19.92
2018-06-05T08:05:23.663Z,20.12
2018-06-05T08:06:29.619Z,20.15
2018-06-05T08:07:35.547Z,19.40
2018-06-05T08:08:41.519Z,21.17
2018-06-05T08:09:47.445Z,19.70
2018-06-05T08:10:53.391Z,20.25
2018-06-05T08:11:59.433Z,18.57
2018-06-05T08:13:05.635Z,18.55
2018-06-05T08:14:11.555Z,19.30
2018-06-05T08:15:17.501Z,18.12
2018-06-05T08:16:23.481Z,18.27
2018-06-05T08:17:29.572Z,18.40
2018-06-05T08:18:35.540Z,18.48
2018-06-05T08:19:41.477Z,18.07
2018-06-05T08:20:47.407Z,17.70
2018-06-05T08:21:53.407Z,17.82
2018-06-05T08:22:59.407Z,17.62
2018-06-05T08:24:05.652Z,18.12
2018-06-05T08:25:11.595Z,18.15
2018-06-05T08:26:18.040Z,17.12
2018-06-05T08:27:23.995Z,17.92
2018-06-05T08:28:29.980Z,17.42
2018-06-05T08:29:36.011Z,17.05
2018-06-05T08:30:41.975Z,17.27
2018-06-05T08:31:48.112Z,19.32
2018-06-05T08:32:54.064Z,18.23
2018-06-05T08:34:00.031Z,19.25
2018-06-05T08:35:06.187Z,18.92
2018-06-05T08:36:12.498Z,18.90
2018-06-05T08:37:18.843Z,17.15
2018-06-05T08:38:24.778Z,18.23
2018-06-05T08:39:30.850Z,18.05
2018-06-05T08:40:37.293Z,17.45
2018-06-05T08:41:43.267Z,17.35
2018-06-05T08:42:49.005Z,18.65
2018-06-05T08:43:54.958Z,19.15
2018-06-05T08:45:00.978Z,19.52
2018-06-05T08:46:06.938Z,18.70
2018-06-05T08:47:12.894Z,18.80
2018-06-05T08:48:18.848Z,18.25
2018-06-05T08:49:24.865Z,19.00
2018-06-05T08:50:30.838Z,19.23
2018-06-05T08:51:36.804Z,20.45
2018-06-05T08:52:42.769Z,19.90
2018-06-05T08:53:48.719Z,20.00
2018-06-05T08:54:54.689Z,20.45
2018-06-05T08:56:00.667Z,20.72
2018-06-05T08:57:06.655Z,21.60
2018-06-05T08:58:12.600Z,18.60
2018-06-05T08:59:18.533Z,20.68
2018-06-05T09:00:24.502Z,19.70
2018-06-05T09:01:30.523Z,18.85
2018-06-05T09:02:36.639Z,20.48
2018-06-05T09:03:42.594Z,20.62
2018-06-05T09:04:48.547Z,20.27
2018-06-05T09:05:54.509Z,19.75
2018-06-05T09:07:00.709Z,20.65
2018-06-05T09:08:06.324Z,19.92
2018-06-05T09:09:12.759Z,20.35
2018-06-05T09:10:18.787Z,20.20
2018-06-05T09:11:24.779Z,20.85
2018-06-05T09:12:30.776Z,22.13
2018-06-05T09:13:36.716Z,20.75
2018-06-05T09:14:42.882Z,19.75
2018-06-05T09:15:48.846Z,20.32
2018-06-05T09:16:55.046Z,20.05
2018-06-05T09:18:01.004Z,20.27
2018-06-05T09:19:07.162Z,20.40
2018-06-05T09:20:13.143Z,20.25
2018-06-05T09:21:19.108Z,20.40
2018-06-05T09:22:25.064Z,20.37
2018-06-05T09:23:31.101Z,21.07
2018-06-05T09:24:37.032Z,23.70
2018-06-05T09:25:43.029Z,19.55
2018-06-05T09:26:49.118Z,20.90
2018-06-05T09:27:55.102Z,18.62
2018-06-05T09:29:01.368Z,19.15
2018-06-05T09:30:07.507Z,19.00
2018-06-05T09:31:13.496Z,19.40
2018-06-05T09:32:19.437Z,19.75
2018-06-05T09:33:25.404Z,19.57
2018-06-05T09:34:31.436Z,18.57
2018-06-05T09:35:37.583Z,20.12
2018-06-05T09:36:43.772Z,19.90
2018-06-05T09:37:49.727Z,19.73
2018-06-05T09:38:55.731Z,17.70
2018-06-05T09:40:01.801Z,20.05
2018-06-05T09:41:07.768Z,19.23
2018-06-05T09:42:13.716Z,18.92
2018-06-05T09:43:19.664Z,18.48
2018-06-05T09:44:25.609Z,18.37
2018-06-05T09:45:31.619Z,17.73
2018-06-05T09:46:37.580Z,18.55
2018-06-05T09:47:43.544Z,18.73
2018-06-05T09:48:49.546Z,18.60
2018-06-05T09:49:55.485Z,17.75
2018-06-05T09:51:01.488Z,17.67
2018-06-05T09:52:07.436Z,19.55
2018-06-05T09:53:13.816Z,17.15
2018-06-05T09:54:19.764Z,18.48
2018-06-05T09:55:25.690Z,18.48
2018-06-05T09:56:31.869Z,16.25
2018-06-05T09:57:37.831Z,16.25
2018-06-05T09:58:44.005Z,16.20
2018-06-05T09:59:49.987Z,15.80
2018-06-05T10:00:56.144Z,17.57
2018-06-05T10:02:02.223Z,17.37
2018-06-05T10:03:08.193Z,18.23
2018-06-05T10:04:14.366Z,16.87
2018-06-05T10:05:20.315Z,18.87
2018-06-05T10:06:26.302Z,17.23
2018-06-05T10:07:32.299Z,16.30
2018-06-05T10:08:38.249Z,17.45
2018-06-05T10:09:44.223Z,16.50
2018-06-05T10:10:50.240Z,15.83
2018-06-05T10:11:56.183Z,17.05
2018-06-05T10:13:02.182Z,16.05
2018-06-05T10:14:08.212Z,16.97
2018-06-05T10:15:14.306Z,16.95
2018-06-05T10:16:20.058Z,17.20
2018-06-05T10:17:26.043Z,16.82
2018-06-05T10:18:32.335Z,16.45
2018-06-05T10:19:38.309Z,16.80
2018-06-05T10:20:44.240Z,15.70
2018-06-05T10:21:50.202Z,15.85
2018-06-05T10:22:56.150Z,17.10
2018-06-05T10:24:02.107Z,16.45
2018-06-05T10:25:08.258Z,15.53
2018-06-05T10:26:14.225Z,16.55
2018-06-05T10:27:20.296Z,16.45
2018-06-05T10:28:26.211Z,16.05
2018-06-05T10:29:32.248Z,17.20
2018-06-05T10:30:38.208Z,16.60
2018-06-05T10:31:44.188Z,16.40
2018-06-05T10:32:49.805Z,16.55
2018-06-05T10:33:55.707Z,16.42
2018-06-05T10:35:01.658Z,16.60
2018-06-05T10:36:07.627Z,17.37
2018-06-05T10:37:13.571Z,17.60
2018-06-05T10:38:19.571Z,17.55
2018-06-05T10:39:25.503Z,17.27
2018-06-05T10:40:31.223Z,16.90
2018-06-05T10:41:37.181Z,16.35
2018-06-05T10:42:43.190Z,18.80
2018-06-05T10:43:49.134Z,16.55
2018-06-05T10:44:55.098Z,17.00
2018-06-05T10:46:01.118Z,17.17
2018-06-05T10:47:07.071Z,19.15
2018-06-05T10:48:13.390Z,18.70
2018-06-05T10:49:19.336Z,17.12
2018-06-05T10:50:25.277Z,17.75
2018-06-05T10:51:31.253Z,18.50
2018-06-05T10:52:37.222Z,18.20
2018-06-05T10:53:43.170Z,18.37
2018-06-05T10:54:49.163Z,17.75
2018-06-05T10:55:55.153Z,19.23
2018-06-05T10:57:01.500Z,17.35
2018-06-05T10:58:07.467Z,19.57
2018-06-05T10:59:13.394Z,19.52
2018-06-05T11:00:19.381Z,18.45
2018-06-05T11:01:25.514Z,21.02
2018-06-05T11:02:31.520Z,19.30
2018-06-05T11:03:37.478Z,18.95
2018-06-05T11:04:43.453Z,19.50
2018-06-05T11:05:49.479Z,19.92
2018-06-05T11:06:55.413Z,18.70
2018-06-05T11:08:01.391Z,19.60
2018-06-05T11:09:09.226Z,18.73
2018-06-05T11:10:15.168Z,19.02
2018-06-05T11:11:21.148Z,19.10
2018-06-05T11:12:27.173Z,19.05
2018-06-05T11:13:33.420Z,19.15
2018-06-05T11:14:39.415Z,19.23
2018-06-05T11:15:45.412Z,18.60
2018-06-05T11:16:51.093Z,19.40
2018-06-05T11:17:57.201Z,18.70
2018-06-05T11:19:03.265Z,19.60
2018-06-05T11:20:09.228Z,19.77
2018-06-05T11:21:15.512Z,20.00
2018-06-05T11:22:21.552Z,18.20
2018-06-05T11:23:27.649Z,20.45
2018-06-05T11:24:33.626Z,19.55
2018-06-05T11:25:39.543Z,19.77
2018-06-05T11:26:45.877Z,18.20
2018-06-05T11:27:51.919Z,19.98
2018-06-05T11:28:57.878Z,18.10
2018-06-05T11:30:07.196Z,21.20
2018-06-05T11:31:13.392Z,21.75
2018-06-05T11:32:19.349Z,20.23
2018-06-05T11:33:25.403Z,20.25
2018-06-05T11:34:31.372Z,19.52
2018-06-05T11:35:37.414Z,19.50
2018-06-05T11:36:43.362Z,19.42
2018-06-05T11:37:50.066Z,20.15
2018-06-05T11:38:56.035Z,18.42
2018-06-05T11:40:01.983Z,19.05
2018-06-05T11:41:07.966Z,20.00
2018-06-05T11:42:13.969Z,20.02
2018-06-05T11:43:19.931Z,19.77
2018-06-05T11:44:25.935Z,19.42
2018-06-05T11:45:32.010Z,19.80
2018-06-05T11:46:38.077Z,19.70
2018-06-05T11:47:44.193Z,22.05
2018-06-05T11:48:51.559Z,19.85
2018-06-05T11:49:57.606Z,20.50
2018-06-05T11:51:03.547Z,20.23
2018-06-05T11:52:09.811Z,18.85
2018-06-05T11:53:15.792Z,19.23
2018-06-05T11:54:21.746Z,20.45
2018-06-05T11:55:28.787Z,21.80
2018-06-05T11:56:34.995Z,20.40
2018-06-05T11:57:41.292Z,19.40
2018-06-05T11:58:47.263Z,19.42
2018-06-05T11:59:53.247Z,18.45
2018-06-05T12:00:59.265Z,19.12
2018-06-05T12:02:05.610Z,20.97
2018-06-05T12:03:11.559Z,22.42
2018-06-05T12:04:17.811Z,22.90
2018-06-05T12:05:24.294Z,20.70
2018-06-05T12:06:30.271Z,21.93
2018-06-05T12:07:35.870Z,21.90
2018-06-05T12:08:41.779Z,20.12
2018-06-05T12:09:47.715Z,21.82
2018-06-05T12:10:53.890Z,22.10
2018-06-05T12:12:00.178Z,23.40
2018-06-05T12:13:06.127Z,19.95
2018-06-05T12:14:12.091Z,21.93
2018-06-05T12:15:17.792Z,22.73
2018-06-05T12:16:23.725Z,22.30
2018-06-05T12:17:29.694Z,22.98
2018-06-05T12:18:35.739Z,23.05
2018-06-05T12:19:41.764Z,21.93
2018-06-05T12:20:47.731Z,21.42
2018-06-05T12:21:53.737Z,20.65
2018-06-05T12:22:59.693Z,20.27
2018-06-05T12:24:05.722Z,21.90
2018-06-05T12:25:11.707Z,19.17
2018-06-05T12:26:17.824Z,21.90
2018-06-05T12:27:23.655Z,21.60
2018-06-05T12:28:29.699Z,21.05
2018-06-05T12:29:35.681Z,21.30
2018-06-05T12:30:42.150Z,23.15
2018-06-05T12:31:48.106Z,22.65
2018-06-05T12:32:54.055Z,22.85
2018-06-05T12:34:00.007Z,22.65
2018-06-05T12:35:06.318Z,21.52
2018-06-05T12:36:12.343Z,21.07
2018-06-05T12:37:18.308Z,20.25
2018-06-05T12:38:24.434Z,21.77
2018-06-05T12:39:30.376Z,20.55
2018-06-05T12:40:36.346Z,21.93
2018-06-05T12:41:42.327Z,21.37
2018-06-05T12:42:48.538Z,21.35
2018-06-05T12:43:54.610Z,22.70
2018-06-05T12:45:01.166Z,21.55
2018-06-05T12:46:07.237Z,19.40
2018-06-05T12:47:13.203Z,21.42
2018-06-05T12:48:19.172Z,20.95
2018-06-05T12:49:25.107Z,21.85
2018-06-05T12:50:31.058Z,24.20
2018-06-05T12:51:36.992Z,22.17
2018-06-05T12:52:43.002Z,22.73
2018-06-05T12:53:48.937Z,23.75
2018-06-05T12:54:54.909Z,22.85
2018-06-05T12:56:00.890Z,20.80
2018-06-05T12:57:07.059Z,21.07
2018-06-05T12:58:13.035Z,21.07
2018-06-05T12:59:18.980Z,21.15
2018-06-05T13:00:24.912Z,20.80
2018-06-05T13:01:30.906Z,21.85
2018-06-05T13:02:36.856Z,21.97
2018-06-05T13:03:43.319Z,20.72
2018-06-05T13:04:49.325Z,20.97
2018-06-05T13:05:55.242Z,21.48
2018-06-05T13:07:01.107Z,22.00
2018-06-05T13:08:07.006Z,22.15
2018-06-05T13:09:13.151Z,22.73
2018-06-05T13:10:19.110Z,21.50
2018-06-05T13:11:25.078Z,22.10
2018-06-05T13:12:31.146Z,23.90
2018-06-05T13:13:37.073Z,23.10
2018-06-05T13:14:43.083Z,23.77
2018-06-05T13:15:49.043Z,24.25
2018-06-05T13:16:54.978Z,22.35
2018-06-05T13:18:00.961Z,23.95
2018-06-05T13:19:06.961Z,23.45
2018-06-05T13:20:12.906Z,22.40
2018-06-05T13:21:18.913Z,22.60
2018-06-05T13:22:24.859Z,24.18
2018-06-05T13:23:30.804Z,25.30
2018-06-05T13:24:36.776Z,24.02
2018-06-05T13:25:42.861Z,22.22
2018-06-05T13:26:48.905Z,22.87
2018-06-05T13:27:54.852Z,23.35
2018-06-05T13:29:00.822Z,24.30
2018-06-05T13:30:06.795Z,27.27
2018-06-05T13:31:12.950Z,26.10
2018-06-05T13:32:18.881Z,23.20
2018-06-05T13:33:24.857Z,23.55
2018-06-05T13:34:30.843Z,23.40
2018-06-05T13:35:36.778Z,24.47
2018-06-05T13:36:42.810Z,24.12
2018-06-05T13:37:48.915Z,24.32
2018-06-05T13:38:54.603Z,24.07
2018-06-05T13:40:00.510Z,26.52
2018-06-05T13:41:06.533Z,24.77
2018-06-05T13:42:12.512Z,24.60
2018-06-05T13:43:18.470Z,25.25
2018-06-05T13:44:24.474Z,25.15
2018-06-05T13:45:30.441Z,23.38
2018-06-05T13:46:36.413Z,23.85
2018-06-05T13:47:42.495Z,24.47
2018-06-05T13:48:48.456Z,25.27
2018-06-05T13:49:54.434Z,23.30
2018-06-05T13:51:00.460Z,24.52
2018-06-05T13:52:06.073Z,25.20
2018-06-05T13:53:11.964Z,24.35
2018-06-05T13:54:17.934Z,22.58
2018-06-05T13:55:23.900Z,23.52
2018-06-05T13:56:29.841Z,24.47
2018-06-05T13:57:35.808Z,24.72
2018-06-05T13:58:41.794Z,23.15
2018-06-05T13:59:47.726Z,22.48
2018-06-05T14:00:53.702Z,24.25
2018-06-05T14:01:59.707Z,23.27
2018-06-05T14:03:06.070Z,25.35
2018-06-05T14:04:12.055Z,25.20
2018-06-05T14:05:18.004Z,24.43
2018-06-05T14:06:24.038Z,25.32
2018-06-05T14:07:29.986Z,24.35
2018-06-05T14:08:35.943Z,24.18
2018-06-05T14:09:41.944Z,24.80
2018-06-05T14:10:47.985Z,23.80